Time;durP1;ratioP1;P1;durP2;ratioP2;P2;SDS_P1;SDS_P2;PMS_P1;PMS_P2;Temp;Humidity;BMP_temperature;BMP_pressure;BME280_temperature;BME280_humidity;BME280_pressure;Samples;Min_cycle;Max_cycle;Signal;HPM_P1;HPM_P2
2022/10/24 00:02:11;;;;;;;4.55;1.95;;;;;;;14.15;100.00;100138.75;5086957;28;20032;-67
2022/10/24 00:04:40;;;;;;;9.57;2.20;;;;;;;14.14;100.00;100144.06;5076097;28;20024;-65
2022/10/24 00:07:07;;;;;;;6.22;2.55;;;;;;;14.15;100.00;100146.69;5091667;28;20024;-66
2022/10/24 00:09:33;;;;;;;6.45;2.40;;;;;;;14.15;100.00;100146.69;5089075;28;20020;-66
2022/10/24 00:11:59;;;;;;;4.15;2.15;;;;;;;14.18;100.00;100144.91;5084612;28;20024;-65
2022/10/24 00:14:24;;;;;;;7.10;2.60;;;;;;;14.15;100.00;100151.13;5090735;28;20024;-65
2022/10/24 00:16:50;;;;;;;11.80;2.70;;;;;;;14.18;100.00;100152.84;5088478;28;20036;-66
2022/10/24 00:19:15;;;;;;;6.57;3.00;;;;;;;14.21;100.00;100148.41;5090179;28;20081;-65
2022/10/24 00:21:40;;;;;;;13.20;3.67;;;;;;;14.24;100.00;100137.78;5089952;28;20081;-66
2022/10/24 00:24:07;;;;;;;7.97;2.63;;;;;;;14.28;100.00;100135.97;5094887;28;20028;-67
2022/10/24 00:26:32;;;;;;;10.98;3.10;;;;;;;14.27;100.00;100126.28;5094404;28;20026;-67
2022/10/24 00:28:57;;;;;;;10.15;2.63;;;;;;;14.31;100.00;100125.34;5093508;28;20103;-66
2022/10/24 00:31:23;;;;;;;9.95;2.80;;;;;;;14.38;100.00;100119.13;5091954;28;20110;-65
2022/10/24 00:33:48;;;;;;;18.42;6.40;;;;;;;14.53;100.00;100125.13;5084825;28;20043;-67
2022/10/24 00:36:17;;;;;;;9.40;2.67;;;;;;;14.64;100.00;100123.28;5085703;28;20033;-66
2022/10/24 00:38:44;;;;;;;10.63;3.03;;;;;;;14.81;100.00;100115.13;5077038;28;20433;-65
2022/10/24 00:41:14;;;;;;;5.78;2.33;;;;;;;14.88;100.00;100122.09;5094010;28;20031;-67
2022/10/24 00:43:39;;;;;;;8.00;2.50;;;;;;;14.95;100.00;100129.06;5093909;28;20471;-66
2022/10/24 00:46:05;;;;;;;8.38;2.53;;;;;;;14.97;100.00;100119.31;5094658;28;20070;-66
2022/10/24 00:48:44;;;;;;;12.60;2.60;;;;;;;15.02;100.00;100124.56;5081324;28;20091;-66
2022/10/24 00:51:32;;;;;;;7.18;2.20;;;;;;;15.06;100.00;100115.69;5079887;28;20081;-66
2022/10/24 00:54:08;;;;;;;7.18;2.35;;;;;;;15.09;100.00;100110.31;5084882;28;20529;-66
2022/10/24 00:56:40;;;;;;;10.55;2.00;;;;;;;15.14;100.00;100105.84;5090408;28;20040;-67
2022/10/24 00:59:09;;;;;;;8.18;2.20;;;;;;;15.15;100.00;100104.97;5093756;28;20016;-68
2022/10/24 01:01:34;;;;;;;11.52;2.45;;;;;;;15.20;100.00;100104.88;5088338;28;20407;-67
2022/10/24 01:04:00;;;;;;;8.65;2.00;;;;;;;15.21;100.00;100105.78;5091579;28;20031;-67
2022/10/24 01:07:03;;;;;;;9.30;2.42;;;;;;;15.28;100.00;100110.06;5093860;28;20530;-67
2022/10/24 01:09:38;;;;;;;13.63;2.30;;;;;;;15.32;100.00;100095.88;5080132;28;20937;-66
2022/10/24 01:12:03;;;;;;;7.57;1.85;;;;;;;15.36;100.00;100097.59;5093150;28;20032;-66
2022/10/24 01:14:46;;;;;;;6.38;1.95;;;;;;;15.34;100.00;100096.72;5079606;28;20460;-66
2022/10/24 01:17:20;;;;;;;7.32;2.28;;;;;;;15.41;100.00;100098.41;5091922;28;20473;-67
2022/10/24 01:19:49;;;;;;;7.28;2.13;;;;;;;15.49;100.00;100100.91;5094633;28;20489;-65
2022/10/24 01:22:20;;;;;;;7.05;2.30;;;;;;;15.52;100.00;100096.44;5087078;28;20035;-66
2022/10/24 01:24:54;;;;;;;8.18;1.60;;;;;;;15.56;100.00;100099.03;5085378;28;20030;-67
2022/10/24 01:27:43;;;;;;;7.45;1.63;;;;;;;15.58;100.00;100092.81;5090308;28;20028;-67
2022/10/24 01:30:11;;;;;;;8.85;2.38;;;;;;;15.63;100.00;100096.25;5076236;28;20025;-67
2022/10/24 01:33:01;;;;;;;8.15;1.45;;;;;;;15.67;100.00;100081.19;5084173;28;20043;-66
2022/10/24 01:35:41;;;;;;;8.13;1.73;;;;;;;15.70;100.00;100081.13;5089629;28;20459;-66
2022/10/24 01:38:38;;;;;;;8.60;1.92;;;;;;;15.69;100.00;100084.69;5092977;28;20037;-66
2022/10/24 01:41:07;;;;;;;10.88;1.75;;;;;;;15.70;100.00;100081.13;5094923;28;20440;-67
2022/10/24 01:43:38;;;;;;;6.90;1.40;;;;;;;15.72;100.00;100073.13;5086392;28;20386;-66
2022/10/24 01:46:09;;;;;;;5.28;1.50;;;;;;;15.67;100.00;100067.94;5092696;28;20111;-66
2022/10/24 01:48:44;;;;;;;8.27;1.63;;;;;;;15.62;100.00;100068.00;5082400;28;20411;-67
2022/10/24 01:51:14;;;;;;;4.38;1.65;;;;;;;15.58;100.00;100066.28;5090654;28;20032;-65
2022/10/24 01:53:42;;;;;;;6.88;1.90;;;;;;;15.64;100.00;100065.31;5093015;28;20024;-67
2022/10/24 01:56:07;;;;;;;10.25;1.50;;;;;;;15.69;100.00;100068.75;5085906;28;20119;-66
2022/10/24 01:58:32;;;;;;;15.13;3.45;;;;;;;15.67;100.00;100066.13;5089852;28;20428;-66
2022/10/24 02:01:02;;;;;;;6.57;1.40;;;;;;;15.62;100.00;100056.53;5092216;28;20024;-67
2022/10/24 02:03:35;;;;;;;9.50;1.83;;;;;;;15.65;100.00;100061.75;5081418;28;20024;-66
2022/10/24 02:06:13;;;;;;;5.88;1.50;;;;;;;15.74;100.00;100072.22;5079422;28;20040;-66
2022/10/24 02:08:43;;;;;;;7.07;1.70;;;;;;;15.83;100.00;100065.94;5090091;28;20032;-66
2022/10/24 02:11:09;;;;;;;5.50;1.40;;;;;;;15.90;100.00;100071.97;5090781;28;20023;-67
2022/10/24 02:13:49;;;;;;;6.60;1.40;;;;;;;15.88;100.00;100057.88;5090778;28;20410;-66
2022/10/24 02:16:17;;;;;;;9.05;1.17;;;;;;;15.88;100.00;100068.47;5076109;28;20472;-67
2022/10/24 02:18:43;;;;;;;3.33;1.20;;;;;;;15.87;100.00;100061.41;5076054;28;20028;-67
2022/10/24 02:21:27;;;;;;;11.48;1.60;;;;;;;15.93;100.00;100071.94;5082336;28;20089;-66
2022/10/24 02:24:06;;;;;;;;;;;;;;;15.92;100.00;100064.88;5091979;28;20020;-66
2022/10/24 02:27:02;;;;;;;5.53;1.58;;;;;;;15.88;100.00;100061.38;5086971;28;19969;-67
2022/10/24 02:29:31;;;;;;;4.63;1.63;;;;;;;15.87;100.00;100070.28;5083090;28;20052;-66
2022/10/24 02:31:57;;;;;;;3.85;1.20;;;;;;;15.88;100.00;100068.47;5082280;28;20530;-66
2022/10/24 02:34:27;;;;;;;7.35;1.75;;;;;;;15.91;100.00;100063.13;5079454;28;20092;-66
2022/10/24 02:36:56;;;;;;;1.88;1.15;;;;;;;15.91;100.00;100052.50;5086117;28;20461;-66
2022/10/24 02:39:22;;;;;;;3.55;1.55;;;;;;;15.97;100.00;100057.72;5091356;28;20047;-67
2022/10/24 02:41:50;;;;;;;3.72;1.30;;;;;;;16.00;100.00;100057.66;5081966;28;20028;-66
2022/10/24 02:44:18;;;;;;;11.10;1.67;;;;;;;15.96;100.00;100061.25;5078999;28;20487;-68
2022/10/24 02:46:45;;;;;;;6.65;1.63;;;;;;;15.94;100.00;100060.41;5084535;28;20086;-66
2022/10/24 02:49:12;;;;;;;4.45;1.38;;;;;;;15.98;100.00;100062.13;5078464;28;20372;-67
2022/10/24 02:51:40;;;;;;;7.00;1.95;;;;;;;15.92;100.00;100062.22;5088780;28;20074;-66
2022/10/24 02:54:06;;;;;;;6.72;1.45;;;;;;;15.89;100.00;100060.50;5088543;28;20082;-66
2022/10/24 02:56:32;;;;;;;6.63;1.48;;;;;;;15.81;100.00;100052.66;5090632;28;20063;-67
2022/10/24 02:58:57;;;;;;;2.25;1.42;;;;;;;15.84;100.00;100044.66;5091750;28;20469;-67
2022/10/24 03:01:22;;;;;;;6.35;1.77;;;;;;;15.87;100.00;100042.84;5092471;28;20059;-67
2022/10/24 03:03:48;;;;;;;2.85;1.20;;;;;;;15.83;100.00;100044.72;5091806;28;20411;-67
2022/10/24 03:06:13;;;;;;;6.65;1.20;;;;;;;15.83;100.00;100048.22;5089365;28;20371;-66
2022/10/24 03:08:39;;;;;;;6.32;1.23;;;;;;;15.88;100.00;100039.31;5092903;28;20028;-66
2022/10/24 03:11:04;;;;;;;5.57;1.20;;;;;;;15.83;100.00;100042.91;5091242;28;20028;-66
2022/10/24 03:13:30;;;;;;;2.22;1.15;;;;;;;15.82;100.00;100030.53;5091449;28;20129;-67
2022/10/24 03:15:56;;;;;;;8.23;1.77;;;;;;;15.83;100.00;100044.72;5088016;28;20536;-66
2022/10/24 03:18:21;;;;;;;4.55;1.40;;;;;;;15.78;100.00;100047.38;5088932;28;20078;-67
2022/10/24 03:20:46;;;;;;;5.28;1.30;;;;;;;15.72;100.00;100044.88;5092799;28;20028;-65
2022/10/24 03:23:13;;;;;;;8.45;1.85;;;;;;;15.67;100.00;100044.06;5087150;28;20036;-67
2022/10/24 03:25:38;;;;;;;9.48;1.20;;;;;;;15.63;100.00;100039.72;5089961;28;20032;-66
2022/10/24 03:28:04;;;;;;;5.38;1.00;;;;;;;15.66;100.00;100032.56;5077525;28;20141;-66
2022/10/24 03:30:29;;;;;;;11.07;1.80;;;;;;;15.70;100.00;100028.09;5073564;28;20028;-67
2022/10/24 03:32:54;;;;;;;9.75;1.48;;;;;;;15.63;100.00;100034.41;5086390;28;20025;-67
2022/10/24 03:35:20;;;;;;;6.82;1.55;;;;;;;15.61;100.00;100038.84;5077368;28;20055;-67
2022/10/24 03:37:45;;;;;;;7.68;1.33;;;;;;;15.59;100.00;100040.66;5075530;28;20052;-67
2022/10/24 03:40:11;;;;;;;4.38;1.15;;;;;;;15.61;100.00;100033.53;5073719;28;20481;-67
2022/10/24 03:42:37;;;;;;;15.00;1.95;;;;;;;15.58;100.00;100034.47;5081423;28;20036;-67
2022/10/24 03:45:03;;;;;;;9.00;1.48;;;;;;;15.62;100.00;100054.72;5088758;28;20032;-66
2022/10/24 03:47:28;;;;;;;7.60;1.30;;;;;;;15.67;100.00;100036.09;5092062;28;20032;-66
2022/10/24 03:49:53;;;;;;;13.45;1.95;;;;;;;15.68;100.00;100037.81;5089758;28;20031;-67
2022/10/24 03:52:19;;;;;;;5.55;2.55;;;;;;;15.72;100.00;100049.28;5091795;28;20422;-66
2022/10/24 03:54:44;;;;;;;6.20;1.10;;;;;;;15.74;100.00;100044.84;5079469;28;20036;-66
2022/10/24 03:57:10;;;;;;;6.78;1.05;;;;;;;15.77;100.00;100037.66;5075166;28;20044;-66
2022/10/24 03:59:36;;;;;;;5.05;1.27;;;;;;;15.75;100.00;100031.53;5092960;28;20035;-66
2022/10/24 04:02:02;;;;;;;6.47;1.25;;;;;;;15.79;100.00;100032.34;5085432;28;20028;-66
2022/10/24 04:04:27;;;;;;;7.72;0.98;;;;;;;15.87;100.00;100041.09;5092339;28;20032;-66
2022/10/24 04:06:53;;;;;;;12.55;1.27;;;;;;;15.83;100.00;100045.56;5092569;28;20020;-66
2022/10/24 04:09:18;;;;;;;8.85;2.58;;;;;;;15.85;100.00;100037.56;5083120;28;20099;-66
2022/10/24 04:11:44;;;;;;;3.58;1.20;;;;;;;15.82;100.00;100033.19;5088580;28;20098;-66
2022/10/24 04:14:09;;;;;;;11.90;1.23;;;;;;;15.84;100.00;100042.03;5094581;28;20024;-66
2022/10/24 04:16:35;;;;;;;6.30;0.95;;;;;;;15.84;100.00;100047.31;5092997;28;20059;-66
2022/10/24 04:19:01;;;;;;;9.55;1.42;;;;;;;15.80;100.00;100032.38;5092374;28;20473;-66
2022/10/24 04:21:26;;;;;;;6.18;1.13;;;;;;;15.80;100.00;100032.38;5094701;28;20027;-66
2022/10/24 04:23:51;;;;;;;7.22;1.60;;;;;;;15.76;100.00;100040.34;5083265;28;20473;-66
2022/10/24 04:26:17;;;;;;;9.13;1.10;;;;;;;15.71;100.00;100035.16;5081364;28;20033;-66
2022/10/24 04:28:45;;;;;;;9.95;1.48;;;;;;;15.75;100.00;100020.94;5093118;28;20058;-67
2022/10/24 04:31:11;;;;;;;9.48;1.70;;;;;;;15.71;100.00;100029.84;5084084;28;20453;-65
2022/10/24 04:33:36;;;;;;;9.93;1.20;;;;;;;15.75;100.00;100036.84;5094340;28;20027;-66
2022/10/24 04:36:02;;;;;;;9.93;1.42;;;;;;;15.80;100.00;100032.38;5095899;28;20106;-67
2022/10/24 04:38:27;;;;;;;6.53;1.35;;;;;;;15.82;100.00;100019.94;5084516;28;20032;-66
2022/10/24 04:40:53;;;;;;;7.45;1.77;;;;;;;15.85;100.00;100033.13;5094278;28;20375;-66
2022/10/24 04:43:20;;;;;;;8.52;1.85;;;;;;;15.91;100.00;100033.94;5093908;28;20047;-66
2022/10/24 04:45:46;;;;;;;9.77;1.50;;;;;;;15.92;100.00;100022.41;5094011;28;20095;-66
2022/10/24 04:48:12;;;;;;;7.25;1.42;;;;;;;15.96;100.00;100055.94;5091606;28;20070;-66
2022/10/24 04:50:40;;;;;;;7.25;0.98;;;;;;;16.02;100.00;100037.28;5092505;28;20028;-67
2022/10/24 04:53:05;;;;;;;9.32;1.10;;;;;;;16.05;100.00;100008.03;5093584;28;20031;-66
2022/10/24 04:55:31;;;;;;;9.43;1.35;;;;;;;16.06;100.00;100008.88;5095072;28;20360;-66
2022/10/24 04:57:56;;;;;;;8.57;1.00;;;;;;;16.00;100.00;100017.84;5090043;28;20105;-65
2022/10/24 05:00:22;;;;;;;6.30;1.10;;;;;;;15.99;100.00;100011.66;5090895;28;20073;-66
2022/10/24 05:02:47;;;;;;;4.63;1.10;;;;;;;16.01;100.00;100024.91;5085203;28;20059;-66
2022/10/24 05:05:12;;;;;;;5.80;1.92;;;;;;;16.04;100.00;100005.41;5087131;28;20032;-66
2022/10/24 05:07:39;;;;;;;10.65;1.67;;;;;;;16.06;100.00;100025.69;5087360;28;20471;-66
2022/10/24 05:10:04;;;;;;;5.05;1.00;;;;;;;16.08;100.00;100018.56;5093649;28;20387;-68
2022/10/24 05:12:30;;;;;;;25.55;3.38;;;;;;;16.13;100.00;100014.06;5095606;28;20024;-68
2022/10/24 05:14:56;;;;;;;5.80;1.10;;;;;;;16.08;100.00;100015.06;5087879;28;20028;-66
2022/10/24 05:17:21;;;;;;;6.68;1.00;;;;;;;16.06;100.00;99999.16;5087016;28;20029;-66
2022/10/24 05:19:48;;;;;;;7.85;1.20;;;;;;;16.04;100.00;100014.22;5092319;28;20376;-65
2022/10/24 05:22:14;;;;;;;10.30;2.17;;;;;;;15.99;100.00;100010.78;5080500;28;20073;-66
2022/10/24 05:24:39;;;;;;;6.53;1.10;;;;;;;15.98;100.00;100012.56;5091780;28;20073;-67
2022/10/24 05:27:05;;;;;;;9.30;1.65;;;;;;;15.95;100.00;100035.63;5080379;28;20031;-66
2022/10/24 05:29:30;;;;;;;3.63;0.65;;;;;;;15.95;100.00;100011.75;5088697;28;20066;-66
2022/10/24 05:31:55;;;;;;;11.65;1.15;;;;;;;15.94;100.00;100020.59;5087637;28;20051;-67
2022/10/24 05:34:21;;;;;;;6.07;0.95;;;;;;;15.93;100.00;100024.19;5083258;28;20035;-66
2022/10/24 05:36:46;;;;;;;10.38;2.40;;;;;;;15.85;100.00;100027.81;5086963;28;20028;-67
2022/10/24 05:39:11;;;;;;;9.10;1.30;;;;;;;15.88;100.00;100024.25;5084763;28;20051;-65
2022/10/24 05:41:37;;;;;;;8.85;1.10;;;;;;;15.87;100.00;100021.63;5077318;28;20430;-65
2022/10/24 05:44:02;;;;;;;12.07;1.30;;;;;;;15.88;100.00;100020.72;5077279;28;20536;-67
2022/10/24 05:46:27;;;;;;;8.32;1.17;;;;;;;15.87;100.00;100014.56;5085602;28;20077;-66
2022/10/24 05:48:53;;;;;;;9.98;1.33;;;;;;;15.84;100.00;100015.50;5086043;28;20117;-66
2022/10/24 05:51:18;;;;;;;9.60;1.25;;;;;;;15.83;100.00;100012.88;5092973;28;20110;-66
2022/10/24 05:53:44;;;;;;;8.65;0.98;;;;;;;15.85;100.00;100043.75;5088081;28;20547;-66
2022/10/24 05:56:09;;;;;;;7.97;1.00;;;;;;;15.88;100.00;100015.44;5092697;28;20475;-66
2022/10/24 05:58:34;;;;;;;6.15;0.98;;;;;;;15.92;100.00;100025.06;5082649;28;22163;-66
2022/10/24 06:01:00;;;;;;;18.88;1.98;;;;;;;15.89;100.00;100022.50;5087603;28;20028;-66
2022/10/24 06:03:25;;;;;;;11.35;2.17;;;;;;;15.90;100.00;100042.78;5085966;28;20086;-66
2022/10/24 06:05:51;;;;;;;4.70;0.93;;;;;;;15.86;100.00;100042.00;5081565;28;20479;-67
2022/10/24 06:08:16;;;;;;;8.18;1.33;;;;;;;15.92;100.00;100039.19;5076597;28;20125;-66
2022/10/24 06:10:46;;;;;;;9.30;1.67;;;;;;;15.96;100.00;100056.81;5074133;28;20029;-66
2022/10/24 06:13:12;;;;;;;10.23;1.00;;;;;;;15.94;100.00;100048.03;5074906;28;20040;-67
2022/10/24 06:15:40;;;;;;;10.35;1.65;;;;;;;15.95;100.00;100068.34;5092176;28;20462;-66
2022/10/24 06:18:05;;;;;;;10.43;1.42;;;;;;;15.98;100.00;100046.19;5093830;28;20050;-67
2022/10/24 06:20:31;;;;;;;4.85;0.90;;;;;;;15.97;100.00;100053.28;5089286;28;20016;-66
2022/10/24 06:22:56;;;;;;;11.85;1.70;;;;;;;15.98;100.00;100051.50;5094462;28;20156;-66
2022/10/24 06:25:21;;;;;;;10.32;0.90;;;;;;;15.96;100.00;100072.75;5094155;28;20016;-66
2022/10/24 06:27:47;;;;;;;11.98;2.03;;;;;;;16.00;100.00;100073.56;5094178;28;20038;-65
2022/10/24 06:30:12;;;;;;;12.73;1.42;;;;;;;15.99;100.00;100074.47;5094213;28;20028;-65
2022/10/24 06:32:38;;;;;;;10.00;1.35;;;;;;;15.90;100.00;100103.81;5088589;28;20027;-68
2022/10/24 06:35:04;;;;;;;9.50;1.20;;;;;;;15.57;100.00;100108.75;5086038;28;20368;-66
2022/10/24 06:37:30;;;;;;;10.95;1.42;;;;;;;15.23;100.00;100090.72;5085338;28;20494;-67
2022/10/24 06:39:55;;;;;;;9.45;1.55;;;;;;;14.96;100.00;100084.91;5079823;28;20025;-67
2022/10/24 06:42:20;;;;;;;6.57;1.20;;;;;;;14.90;100.00;100088.50;5080538;28;20375;-67
2022/10/24 06:44:46;;;;;;;5.85;1.38;;;;;;;14.91;100.00;100100.00;5082883;28;20477;-67
2022/10/24 06:47:11;;;;;;;6.20;1.55;;;;;;;15.05;100.00;100110.41;5088294;28;20493;-66
2022/10/24 06:49:36;;;;;;;4.97;0.98;;;;;;;15.21;100.00;100116.38;5075616;28;20016;-67
2022/10/24 06:52:02;;;;;;;6.18;1.00;;;;;;;15.31;100.00;100095.00;5072541;28;20134;-65
2022/10/24 06:54:27;;;;;;;4.13;0.95;;;;;;;15.37;100.00;100094.03;5089678;28;20480;-66
2022/10/24 06:56:52;;;;;;;10.43;1.30;;;;;;;15.59;100.00;100128.19;5075720;28;20492;-66
2022/10/24 06:59:18;;;;;;;8.93;1.30;;;;;;;15.64;100.00;100123.66;5087214;28;20351;-67
2022/10/24 07:01:44;;;;;;;6.35;1.25;;;;;;;15.72;100.00;100121.78;5081846;28;20024;-66
2022/10/24 07:04:10;;;;;;;3.33;0.80;;;;;;;15.67;100.00;100129.78;5086467;28;20032;-66
2022/10/24 07:06:35;;;;;;;5.53;0.98;;;;;;;15.66;100.00;100122.72;5090820;28;20034;-68
2022/10/24 07:09:02;;;;;;;9.68;1.20;;;;;;;15.66;100.00;100148.38;5076312;28;20037;-66
2022/10/24 07:11:28;;;;;;;8.13;1.58;;;;;;;15.69;100.00;100145.69;5089354;28;20035;-66
2022/10/24 07:13:54;;;;;;;8.23;1.27;;;;;;;15.76;100.00;100168.56;5085904;28;20040;-65
2022/10/24 07:16:19;;;;;;;7.00;0.75;;;;;;;15.79;100.00;100159.66;5085387;28;20028;-66
2022/10/24 07:18:45;;;;;;;7.97;1.20;;;;;;;15.80;100.00;100159.69;5089282;28;20476;-65
2022/10/24 07:21:18;;;;;;;8.90;1.42;;;;;;;15.76;100.00;100179.19;5090175;28;20028;-66
2022/10/24 07:23:44;;;;;;;6.78;1.05;;;;;;;15.67;100.00;100182.84;5073618;28;20016;-67
2022/10/24 07:26:13;;;;;;;6.03;1.15;;;;;;;15.63;100.00;100185.56;5083471;28;20039;-67
2022/10/24 07:28:40;;;;;;;14.55;1.70;;;;;;;15.62;100.00;100189.13;5082567;28;20028;-67
2022/10/24 07:31:06;;;;;;;6.60;1.23;;;;;;;15.65;100.00;100189.06;5084679;28;20174;-67
2022/10/24 07:33:33;;;;;;;8.82;1.25;;;;;;;15.64;100.00;100195.25;5079471;28;20031;-67
2022/10/24 07:35:58;;;;;;;6.97;1.30;;;;;;;15.67;100.00;100200.53;5064459;28;20577;-67
2022/10/24 07:38:24;;;;;;;8.10;1.75;;;;;;;15.72;100.00;100198.69;5080609;28;20095;-66
2022/10/24 07:40:50;;;;;;;8.75;1.17;;;;;;;15.71;100.00;100191.63;5084284;28;20033;-67
2022/10/24 07:43:16;;;;;;;7.20;0.88;;;;;;;15.67;100.00;100203.19;5089742;28;20017;-65
2022/10/24 07:45:42;;;;;;;6.85;1.30;;;;;;;15.66;100.00;100206.75;5084776;28;20039;-64
2022/10/24 07:48:08;;;;;;;5.45;1.02;;;;;;;15.63;100.00;100206.78;5082173;28;20024;-67
2022/10/24 07:50:39;;;;;;;8.68;1.40;;;;;;;15.70;100.00;100227.00;5079735;28;20024;-65
2022/10/24 07:53:05;;;;;;;7.28;1.30;;;;;;;15.67;100.00;100216.44;5090693;28;20106;-67
2022/10/24 07:55:30;;;;;;;10.25;1.55;;;;;;;15.58;100.00;100220.09;5083749;28;20113;-65
2022/10/24 07:57:56;;;;;;;10.73;2.08;;;;;;;15.54;100.00;100228.13;5078074;28;20162;-66
2022/10/24 08:00:21;;;;;;;10.48;1.17;;;;;;;15.51;100.00;100229.91;5076543;28;20021;-68
2022/10/24 08:02:47;;;;;;;6.15;1.13;;;;;;;15.49;100.00;100236.13;5074942;28;20582;-67
2022/10/24 08:05:12;;;;;;;7.57;1.05;;;;;;;15.50;100.00;100244.09;5079482;28;20029;-66
2022/10/24 08:07:37;;;;;;;11.73;1.13;;;;;;;15.51;100.00;100251.13;5081771;28;20456;-66
2022/10/24 08:10:04;;;;;;;8.45;1.00;;;;;;;15.53;100.00;100261.72;5090198;28;20103;-66
2022/10/24 08:12:31;;;;;;;11.13;1.10;;;;;;;15.62;100.00;100258.06;5082115;28;20020;-66
2022/10/24 08:14:56;;;;;;;5.70;1.60;;;;;;;15.62;100.00;100279.28;5085022;28;20434;-66
2022/10/24 08:17:23;;;;;;;10.30;1.02;;;;;;;15.63;100.00;100270.44;5082272;28;20031;-65
2022/10/24 08:19:49;;;;;;;5.57;1.48;;;;;;;15.58;100.00;100278.44;5089522;28;20036;-66
2022/10/24 08:22:15;;;;;;;4.40;1.20;;;;;;;15.47;100.00;100275.94;5080758;28;20526;-66
2022/10/24 08:24:44;;;;;;;8.38;1.33;;;;;;;15.37;100.00;100292.88;5083348;28;20039;-65
2022/10/24 08:27:11;;;;;;;7.07;1.10;;;;;;;15.30;100.00;100285.84;5089540;28;20032;-65
2022/10/24 08:29:36;;;;;;;5.53;1.08;;;;;;;15.25;100.00;100280.63;5089575;28;20024;-65
2022/10/24 08:32:02;;;;;;;6.55;1.30;;;;;;;15.15;100.00;100290.47;5077246;28;20027;-67
2022/10/24 08:34:28;;;;;;;6.88;0.82;;;;;;;15.20;100.00;100289.53;5075788;28;20027;-66
2022/10/24 08:36:53;;;;;;;3.40;1.13;;;;;;;15.18;100.00;100287.78;5089920;28;20447;-66
2022/10/24 08:39:19;;;;;;;14.68;1.38;;;;;;;15.11;100.00;100309.94;5078696;28;20460;-67
2022/10/24 08:41:56;;;;;;;9.48;1.10;;;;;;;15.04;100.00;100288.81;5075959;28;20048;-65
2022/10/24 08:44:36;;;;;;;8.45;1.50;;;;;;;15.00;100.00;100301.22;5080630;28;20031;-67
2022/10/24 08:47:05;;;;;;;4.50;1.13;;;;;;;14.92;100.00;100303.06;5089655;28;20032;-68
2022/10/24 08:49:50;;;;;;;5.82;1.05;;;;;;;14.94;100.00;100314.53;5082340;28;20032;-66
2022/10/24 08:52:20;;;;;;;6.15;1.20;;;;;;;14.93;100.00;100304.81;5090198;28;20027;-67
2022/10/24 08:54:47;;;;;;;9.75;1.02;;;;;;;14.95;100.00;100306.56;5084773;28;20028;-66
2022/10/24 08:57:27;;;;;;;4.97;1.05;;;;;;;15.12;100.00;100319.63;5085798;28;20068;-66
2022/10/24 08:59:56;;;;;;;8.02;1.10;;;;;;;15.20;100.00;100319.56;5093234;28;20028;-66
2022/10/24 09:02:25;;;;;;;11.38;1.23;;;;;;;15.20;100.00;100330.16;5082869;28;20027;-68
2022/10/24 09:04:58;;;;;;;8.15;1.00;;;;;;;15.10;100.00;100324.09;5080158;28;20106;-67
2022/10/24 09:07:24;;;;;;;8.00;1.40;;;;;;;15.19;100.00;100328.38;5085654;28;20106;-66
2022/10/24 09:09:57;;;;;;;5.72;1.00;;;;;;;15.16;100.00;100321.34;5087401;28;20395;-67
2022/10/24 09:12:23;;;;;;;8.40;1.05;;;;;;;15.08;100.00;100340.88;5094816;28;20085;-66
2022/10/24 09:14:58;;;;;;;9.63;1.35;;;;;;;15.07;100.00;100342.66;5086494;28;20024;-66
2022/10/24 09:17:33;;;;;;;11.88;1.45;;;;;;;15.16;100.00;100345.19;5090071;28;20453;-66
2022/10/24 09:20:24;;;;;;;8.00;1.98;;;;;;;15.26;100.00;100355.72;5078029;28;20095;-67
2022/10/24 09:22:52;;;;;;;13.82;2.00;;;;;;;15.47;100.00;100347.53;5088493;28;20111;-67
2022/10/24 09:25:21;;;;;;;4.70;1.05;;;;;;;15.76;100.00;100351.63;5082986;28;20021;-67
2022/10/24 09:27:47;;;;;;;5.18;0.98;;;;;;;15.94;100.00;100368.19;5079403;28;20029;-67
2022/10/24 09:30:19;;;;;;;8.25;1.40;;;;;;;16.23;100.00;100369.59;5076632;28;20033;-67
2022/10/24 09:32:45;;;;;;;5.90;0.98;;;;;;;16.01;100.00;100362.78;5085312;28;20090;-66
2022/10/24 09:35:19;;;;;;;7.72;1.23;;;;;;;15.97;100.00;100365.53;5083365;28;20020;-66
2022/10/24 09:37:54;;;;;;;8.80;1.17;;;;;;;16.09;100.00;100365.34;5072863;28;20047;-67
2022/10/24 09:40:22;;;;;;;4.38;0.85;;;;;;;16.22;100.00;100375.78;5086004;28;20030;-68
2022/10/24 09:43:06;;;;;;;10.55;1.50;;;;;;;16.36;100.00;100360.56;5078390;28;20108;-67
2022/10/24 09:45:34;;;;;;;11.90;1.55;;;;;;;16.43;100.00;100375.47;5074713;28;20024;-66
2022/10/24 09:48:21;;;;;;;8.80;1.95;;;;;;;16.53;100.00;100389.50;5085678;28;20460;-67
2022/10/24 09:50:51;;;;;;;6.13;1.30;;;;;;;16.68;100.00;100389.25;5079224;28;20036;-65
2022/10/24 09:53:23;;;;;;;6.00;0.95;;;;;;;16.68;100.00;100401.66;5076284;28;20501;-66
2022/10/24 09:55:51;;;;;;;8.85;1.27;;;;;;;16.64;100.00;100402.59;5082036;28;20039;-67
2022/10/24 09:58:20;;;;;;;8.93;1.48;;;;;;;16.61;100.00;100407.97;5080250;28;20048;-67
2022/10/24 10:01:01;;;;;;;9.75;1.60;;;;;;;16.60;100.00;100414.19;5075877;28;20472;-66
2022/10/24 10:03:27;;;;;;;9.30;1.30;;;;;;;16.56;100.00;100420.44;5075014;28;20028;-66
2022/10/24 10:05:57;;;;;;;6.43;1.25;;;;;;;16.59;100.00;100409.75;5082923;28;20032;-66
2022/10/24 10:08:31;;;;;;;12.98;1.75;;;;;;;16.68;100.00;100415.84;5088179;28;20052;-66
2022/10/24 10:11:08;;;;;;;5.38;1.15;;;;;;;16.64;100.00;100410.56;5075328;28;20114;-67
2022/10/24 10:13:44;;;;;;;6.43;1.30;;;;;;;16.98;100.00;100424.25;5086643;28;20045;-67
2022/10/24 10:16:23;;;;;;;7.68;1.50;;;;;;;16.94;100.00;100429.63;5078012;28;20082;-66
2022/10/24 10:18:48;;;;;;;5.47;1.20;;;;;;;16.57;100.00;100448.75;5083963;28;20031;-66
2022/10/24 10:21:17;;;;;;;8.80;1.30;;;;;;;16.30;100.00;100443.81;5077711;28;20016;-66
2022/10/24 10:23:43;;;;;;;7.90;1.38;;;;;;;16.30;100.00;100450.91;5088275;28;20020;-66
2022/10/24 10:26:40;;;;;;;7.68;2.25;;;;;;;16.62;100.00;100454.91;5082355;28;20023;-67
2022/10/24 10:29:18;;;;;;;23.58;1.70;;;;;;;16.51;100.00;100447.09;5076218;28;20166;-67
2022/10/24 10:31:45;;;;;;;8.90;1.45;;;;;;;16.25;100.00;100460.69;5079896;28;20031;-66
2022/10/24 10:34:30;;;;;;;9.43;1.35;;;;;;;16.13;100.00;100481.19;5083696;28;20016;-66
2022/10/24 10:37:08;;;;;;;9.30;1.85;;;;;;;16.07;100.00;100481.25;5083384;28;20033;-65
2022/10/24 10:40:02;;;;;;;9.77;1.73;;;;;;;15.97;100.00;100471.66;5074966;28;20016;-68
2022/10/24 10:42:42;;;;;;;;;;;;;;;15.83;100.00;100483.31;5077930;28;20031;-66
2022/10/24 10:45:19;;;;;;;8.80;1.50;;;;;;;15.64;100.00;100479.03;5079766;28;19920;-65
2022/10/24 10:47:46;;;;;;;8.95;1.60;;;;;;;15.47;100.00;100484.53;5081574;28;20448;-65
2022/10/24 10:50:37;;;;;;;5.18;1.23;;;;;;;15.40;100.00;100489.00;5084076;28;20031;-66
2022/10/24 10:53:40;;;;;;;6.43;1.63;;;;;;;15.38;100.00;100493.44;5078162;28;20040;-66
2022/10/24 10:56:14;;;;;;;7.22;1.30;;;;;;;15.38;100.00;100512.00;5085737;28;20102;-66
2022/10/24 10:58:55;;;;;;;7.70;1.17;;;;;;;15.40;100.00;100502.28;5083838;28;20058;-66
2022/10/24 11:01:23;;;;;;;4.75;1.42;;;;;;;15.35;100.00;100498.78;5076235;28;20036;-65
2022/10/24 11:04:32;;;;;;;7.88;1.88;;;;;;;15.38;100.00;100501.38;5090325;28;20483;-65
2022/10/24 11:07:30;;;;;;;3.33;0.80;;;;;;;15.45;100.00;100507.53;5087130;28;20386;-65
2022/10/24 11:09:58;;;;;;;3.20;1.10;;;;;;;15.62;100.00;100494.97;5073157;28;20051;-65
2022/10/24 11:12:28;;;;;;;4.70;0.98;;;;;;;15.79;100.00;100510.75;5074246;28;20495;-66
2022/10/24 11:15:06;;;;;;;7.18;1.02;;;;;;;15.79;100.00;100496.56;5090761;28;20180;-65
2022/10/24 11:17:50;;;;;;;5.15;1.80;;;;;;;15.59;100.00;100516.25;5073573;28;20365;-67
2022/10/24 11:20:18;;;;;;;8.75;1.60;;;;;;;15.64;100.00;100508.22;5073876;28;20021;-67
2022/10/24 11:23:20;;;;;;;6.28;1.40;;;;;;;15.57;100.00;100511.84;5086681;28;20384;-67
2022/10/24 11:25:51;;;;;;;10.73;1.90;;;;;;;15.42;100.00;100512.84;5081354;28;20020;-65
2022/10/24 11:28:42;;;;;;;4.18;1.40;;;;;;;15.28;100.00;100529.75;5084977;28;20028;-68